Detall de PIREP

Printer-friendly versionPDF version

[2010/03/27 16:06:00]
Flight IATA:CT1001
Pilot Number:026
Company ICAO:CAT
Aircraft Type:F50/A
PAX:50
Departing Airport: LICJ
Destination Airport: LICG
Alternate Airport:DTTA
Online: VATSIM
Route:TRP L869 MEGAN M740 ROBET
Flight Level:FL110
No Slew and time accel
No pause
Crash detect
Detect pilot in Cockpit between each 30 and 45 minutes
16:06 Zero fuel Weight: 43000 Lbs, Fuel Weight: 2500 Lbs
16:06 VATSIM:LICJ 271550Z 24013KT 9999 FEW022 16/12 Q1018
16:06 VATSIM:LICG 271555Z 30020G32KT 9999 FEW013 15/12 Q1019 RMK SCT SCT066 VIS MIN 9999 WIND THR08 29011G21KT WIND THR21 30016KT BLU
16:06 VOICE CATALONIAN / MEDITERRANEAN ODYSSEY
16:10 Parking Brakes off
16:19 Take-off
16:19 Take off Weight: 45435 Lbs
16:19 Wind: 239º @ 013 Knots Heading: 243º
16:19 POS N38º 10´ 51´´ E013º 06´ 24´´
16:19 Gear Up: 132 Knots
16:19 Flaps:2 at 132 Knots
16:19 Flaps:1 at 132 Knots
16:1
9 Flaps:0 at 145 Knots
16:27 TOC
16:27 Fuel Weight: 2163 Lb
16:34 Wind:279º@035 Knots Heading: 236º Ground Speed: 214 Knots Altitude 11118 ft
16:46 TOD
16:46 Fuel Weight: 1727 Lb
16:49 Wind:299º@044 Knots Heading: 188º Ground Speed: 239 Knots Altitude 7368 ft
16:57 Flaps:1 at 154 Knots
16:57 Gear Down: 148 Knots
16:59 Flaps:2 at 132 Knots
17:00 TouchDown:Rate -241 ft/min Speed: 108 Knots
17:00 VATSIM:LICG 271555Z 30020G32KT 9999 FEW013 15/12 Q1019 RMK SCT SCT066 VIS MIN 9999 WIND THR08 29011G21KT WIND THR21 30016KT BLU
17:01 Land
17:01 Wind:299º@020 Knots
17:01 Heading: 234º
17:01 Flight Duration: 00:42
17:01 Landing Weight: 44591 Lbs
17:01 POS N36º 48´ 54´´ E011º 57´ 41´´
17:13 Parking brakes on
17:13 Block to Block Duration: 01:03
17:13 Final Fuel: 1527 Lbls
17:13 Spent Fuel: 972 Lbls
17:13 Flight Length: 144 NM
17:13 TOD Land Length: 42 NM

Exportar CSV

Powered by Drupal - Modified by Danger4k